Snoqualmie Pass, Washington
Current Conditions -  °F | °C
As of 10:00 PM on Monday 20 Oct 2014 (Local Time) from KRNT Reporting Station
Light Rain Light Rain  
Wind Chill: 56°   Ceiling: 3500
Heat Index: 56°   Visibility: 6mi
Dew Point: 54°   Wind: 0mph
Humidity: 93%   Direction: NA
Pressure: 29.8"   Gusts: NA
Location:  47.43°N, 121.4°W
Report Text: KRNT 210500Z AUTO 00000KT 6SM -RA BR SCT029 BKN035 OVC070 13/12 A2980 RMK AO2 P0001 T01330122
Loading
Personal Weather Stations






























Interactive Weather Map
Tropical Storm Tracking
New forecast layout! Learn more

10-Day Weather Forecast

Advertisements
Track Severe Weather on mobile